sensor_id;sensor_type;location;lat;lon;timestamp;temperature;humidity
20400;DHT22;10359;53.596;22.520;2023-11-19T00:01:08;-1.30;1.00
20400;DHT22;10359;53.596;22.520;2023-11-19T00:03:38;-0.70;1.00
20400;DHT22;10359;53.596;22.520;2023-11-19T00:06:08;-0.80;1.00
20400;DHT22;10359;53.596;22.520;2023-11-19T00:08:39;-0.70;1.00
20400;DHT22;10359;53.596;22.520;2023-11-19T00:11:08;-0.70;1.00
20400;DHT22;10359;53.596;22.520;2023-11-19T00:13:37;-0.70;1.00
20400;DHT22;10359;53.596;22.520;2023-11-19T00:16:09;-1.10;1.00
20400;DHT22;10359;53.596;22.520;2023-11-19T00:18:39;-0.70;1.00
20400;DHT22;10359;53.596;22.520;2023-11-19T00:21:08;-0.40;1.00
20400;DHT22;10359;53.596;22.520;2023-11-19T00:23:38;-0.40;1.00
20400;DHT22;10359;53.596;22.520;2023-11-19T00:26:07;-0.70;1.00
20400;DHT22;10359;53.596;22.520;2023-11-19T00:28:36;-0.80;1.00
20400;DHT22;10359;53.596;22.520;2023-11-19T00:31:10;-0.40;1.00
20400;DHT22;10359;53.596;22.520;2023-11-19T00:33:40;-0.40;1.00
20400;DHT22;10359;53.596;22.520;2023-11-19T00:36:11;-0.20;1.00
20400;DHT22;10359;53.596;22.520;2023-11-19T00:38:42;-0.30;1.00
20400;DHT22;10359;53.596;22.520;2023-11-19T00:41:12;-0.50;1.00
20400;DHT22;10359;53.596;22.520;2023-11-19T00:43:44;-0.30;1.00
20400;DHT22;10359;53.596;22.520;2023-11-19T00:46:14;-0.20;1.00
20400;DHT22;10359;53.596;22.520;2023-11-19T00:48:44;-0.20;1.00
20400;DHT22;10359;53.596;22.520;2023-11-19T00:51:18;-0.10;1.00
20400;DHT22;10359;53.596;22.520;2023-11-19T00:53:48;-0.50;1.00
20400;DHT22;10359;53.596;22.520;2023-11-19T00:56:18;-0.10;1.00
20400;DHT22;10359;53.596;22.520;2023-11-19T00:58:47;-0.20;1.00
20400;DHT22;10359;53.596;22.520;2023-11-19T01:01:18;-0.20;1.00
20400;DHT22;10359;53.596;22.520;2023-11-19T01:03:48;-0.30;1.00
20400;DHT22;10359;53.596;22.520;2023-11-19T01:06:27;-0.50;1.00
20400;DHT22;10359;53.596;22.520;2023-11-19T01:08:57;-0.20;1.00
20400;DHT22;10359;53.596;22.520;2023-11-19T01:11:27;0.00;1.00
20400;DHT22;10359;53.596;22.520;2023-11-19T01:13:56;-0.10;1.00
20400;DHT22;10359;53.596;22.520;2023-11-19T01:16:27;0.00;1.00
20400;DHT22;10359;53.596;22.520;2023-11-19T01:18:57;-0.10;1.00
20400;DHT22;10359;53.596;22.520;2023-11-19T01:21:44;-0.20;1.00
20400;DHT22;10359;53.596;22.520;2023-11-19T01:24:13;-0.10;1.00
20400;DHT22;10359;53.596;22.520;2023-11-19T01:26:46;-0.10;1.00
20400;DHT22;10359;53.596;22.520;2023-11-19T01:29:16;-0.20;1.00
20400;DHT22;10359;53.596;22.520;2023-11-19T01:31:47;-0.20;1.00
20400;DHT22;10359;53.596;22.520;2023-11-19T01:34:18;-0.10;1.00
20400;DHT22;10359;53.596;22.520;2023-11-19T01:36:48;-0.20;1.00
20400;DHT22;10359;53.596;22.520;2023-11-19T01:39:18;-0.10;1.00
20400;DHT22;10359;53.596;22.520;2023-11-19T01:41:49;0.10;1.00
20400;DHT22;10359;53.596;22.520;2023-11-19T01:44:18;0.00;1.00
20400;DHT22;10359;53.596;22.520;2023-11-19T01:46:49;0.20;1.00
20400;DHT22;10359;53.596;22.520;2023-11-19T01:49:19;0.00;1.00
20400;DHT22;10359;53.596;22.520;2023-11-19T01:51:49;-0.10;1.00
20400;DHT22;10359;53.596;22.520;2023-11-19T01:54:18;-0.10;1.00
20400;DHT22;10359;53.596;22.520;2023-11-19T01:56:47;-0.50;1.00
20400;DHT22;10359;53.596;22.520;2023-11-19T01:59:17;0.10;1.00
20400;DHT22;10359;53.596;22.520;2023-11-19T02:01:50;0.10;1.00
20400;DHT22;10359;53.596;22.520;2023-11-19T02:04:27;0.20;1.00
20400;DHT22;10359;53.596;22.520;2023-11-19T02:06:58;0.10;1.00
20400;DHT22;10359;53.596;22.520;2023-11-19T02:09:27;-0.10;1.00
20400;DHT22;10359;53.596;22.520;2023-11-19T02:11:57;-0.10;1.00
20400;DHT22;10359;53.596;22.520;2023-11-19T02:14:27;-0.10;1.00
20400;DHT22;10359;53.596;22.520;2023-11-19T02:16:57;-0.10;1.00
20400;DHT22;10359;53.596;22.520;2023-11-19T02:19:27;-0.10;1.00
20400;DHT22;10359;53.596;22.520;2023-11-19T02:21:56;-0.20;1.00
20400;DHT22;10359;53.596;22.520;2023-11-19T02:24:27;0.00;1.00
20400;DHT22;10359;53.596;22.520;2023-11-19T02:27:10;-0.10;1.00
20400;DHT22;10359;53.596;22.520;2023-11-19T02:29:45;-0.20;1.00
20400;DHT22;10359;53.596;22.520;2023-11-19T02:32:16;0.10;1.00
20400;DHT22;10359;53.596;22.520;2023-11-19T02:34:45;-0.10;1.00
20400;DHT22;10359;53.596;22.520;2023-11-19T02:37:14;-0.10;1.00
20400;DHT22;10359;53.596;22.520;2023-11-19T02:39:44;-0.10;1.00
20400;DHT22;10359;53.596;22.520;2023-11-19T02:42:13;-0.10;1.00
20400;DHT22;10359;53.596;22.520;2023-11-19T02:44:45;0.00;1.00
20400;DHT22;10359;53.596;22.520;2023-11-19T02:47:16;0.00;1.00
20400;DHT22;10359;53.596;22.520;2023-11-19T02:49:47;0.20;1.00
20400;DHT22;10359;53.596;22.520;2023-11-19T02:52:16;0.20;1.00
20400;DHT22;10359;53.596;22.520;2023-11-19T02:54:46;0.00;1.00
20400;DHT22;10359;53.596;22.520;2023-11-19T02:57:15;0.20;1.00
20400;DHT22;10359;53.596;22.520;2023-11-19T02:59:50;0.20;1.00
20400;DHT22;10359;53.596;22.520;2023-11-19T03:02:20;0.00;1.00
20400;DHT22;10359;53.596;22.520;2023-11-19T03:04:50;0.00;1.00
20400;DHT22;10359;53.596;22.520;2023-11-19T03:07:18;0.10;1.00
20400;DHT22;10359;53.596;22.520;2023-11-19T03:09:48;0.20;1.00
20400;DHT22;10359;53.596;22.520;2023-11-19T03:12:17;-0.10;1.00
20400;DHT22;10359;53.596;22.520;2023-11-19T03:14:46;-0.10;1.00
20400;DHT22;10359;53.596;22.520;2023-11-19T03:17:19;0.00;1.00
20400;DHT22;10359;53.596;22.520;2023-11-19T03:19:50;0.00;1.00
20400;DHT22;10359;53.596;22.520;2023-11-19T03:22:19;0.10;1.00
20400;DHT22;10359;53.596;22.520;2023-11-19T03:24:53;-0.30;1.00
20400;DHT22;10359;53.596;22.520;2023-11-19T03:27:27;0.10;1.00
20400;DHT22;10359;53.596;22.520;2023-11-19T03:29:57;0.30;1.00
20400;DHT22;10359;53.596;22.520;2023-11-19T03:32:28;0.10;1.00
20400;DHT22;10359;53.596;22.520;2023-11-19T03:34:57;0.10;1.00
20400;DHT22;10359;53.596;22.520;2023-11-19T03:37:26;-0.30;1.00
20400;DHT22;10359;53.596;22.520;2023-11-19T03:39:57;0.20;1.00
20400;DHT22;10359;53.596;22.520;2023-11-19T03:42:29;0.10;1.00
20400;DHT22;10359;53.596;22.520;2023-11-19T03:44:59;0.30;1.00
20400;DHT22;10359;53.596;22.520;2023-11-19T03:47:29;0.10;1.00
20400;DHT22;10359;53.596;22.520;2023-11-19T03:49:59;0.20;1.00
20400;DHT22;10359;53.596;22.520;2023-11-19T03:52:28;0.20;1.00
20400;DHT22;10359;53.596;22.520;2023-11-19T03:55:09;0.20;1.00
20400;DHT22;10359;53.596;22.520;2023-11-19T03:57:40;0.10;1.00
20400;DHT22;10359;53.596;22.520;2023-11-19T04:00:10;0.50;1.00
20400;DHT22;10359;53.596;22.520;2023-11-19T04:02:43;0.10;1.00
20400;DHT22;10359;53.596;22.520;2023-11-19T04:05:15;0.00;1.00
20400;DHT22;10359;53.596;22.520;2023-11-19T04:07:46;-0.20;1.00
20400;DHT22;10359;53.596;22.520;2023-11-19T04:10:16;0.20;1.00
20400;DHT22;10359;53.596;22.520;2023-11-19T04:12:48;0.10;1.00
20400;DHT22;10359;53.596;22.520;2023-11-19T04:15:18;0.30;1.00
20400;DHT22;10359;53.596;22.520;2023-11-19T04:17:48;0.30;1.00
20400;DHT22;10359;53.596;22.520;2023-11-19T04:20:19;0.00;1.00
20400;DHT22;10359;53.596;22.520;2023-11-19T04:22:50;0.00;1.00
20400;DHT22;10359;53.596;22.520;2023-11-19T04:25:21;0.30;1.00
20400;DHT22;10359;53.596;22.520;2023-11-19T04:27:55;0.40;1.00
20400;DHT22;10359;53.596;22.520;2023-11-19T04:30:26;0.40;1.00
20400;DHT22;10359;53.596;22.520;2023-11-19T04:32:57;0.10;1.00
20400;DHT22;10359;53.596;22.520;2023-11-19T04:35:26;0.30;1.00
20400;DHT22;10359;53.596;22.520;2023-11-19T04:37:56;0.30;1.00
20400;DHT22;10359;53.596;22.520;2023-11-19T04:40:32;0.30;1.00
20400;DHT22;10359;53.596;22.520;2023-11-19T04:43:02;0.30;1.00
20400;DHT22;10359;53.596;22.520;2023-11-19T04:45:38;0.20;1.00
20400;DHT22;10359;53.596;22.520;2023-11-19T04:48:09;0.30;1.00
20400;DHT22;10359;53.596;22.520;2023-11-19T04:50:41;0.20;1.00
20400;DHT22;10359;53.596;22.520;2023-11-19T04:53:10;0.50;1.00
20400;DHT22;10359;53.596;22.520;2023-11-19T04:55:39;0.40;1.00
20400;DHT22;10359;53.596;22.520;2023-11-19T04:58:08;0.30;1.00
20400;DHT22;10359;53.596;22.520;2023-11-19T05:00:38;0.30;1.00
20400;DHT22;10359;53.596;22.520;2023-11-19T05:03:08;0.60;1.00
20400;DHT22;10359;53.596;22.520;2023-11-19T05:05:37;0.30;1.00
20400;DHT22;10359;53.596;22.520;2023-11-19T05:08:07;0.40;1.00
20400;DHT22;10359;53.596;22.520;2023-11-19T05:10:36;0.40;1.00
20400;DHT22;10359;53.596;22.520;2023-11-19T05:13:05;0.60;1.00
20400;DHT22;10359;53.596;22.520;2023-11-19T05:15:35;0.50;1.00
20400;DHT22;10359;53.596;22.520;2023-11-19T05:18:04;0.50;1.00
20400;DHT22;10359;53.596;22.520;2023-11-19T05:20:35;0.70;1.00
20400;DHT22;10359;53.596;22.520;2023-11-19T05:23:04;0.50;1.00
20400;DHT22;10359;53.596;22.520;2023-11-19T05:25:47;0.60;1.00
20400;DHT22;10359;53.596;22.520;2023-11-19T05:28:17;0.50;1.00
20400;DHT22;10359;53.596;22.520;2023-11-19T05:30:46;0.50;1.00
20400;DHT22;10359;53.596;22.520;2023-11-19T05:33:15;0.50;1.00
20400;DHT22;10359;53.596;22.520;2023-11-19T05:35:46;0.30;1.00
20400;DHT22;10359;53.596;22.520;2023-11-19T05:38:15;0.70;1.00
20400;DHT22;10359;53.596;22.520;2023-11-19T05:40:45;0.40;1.00
20400;DHT22;10359;53.596;22.520;2023-11-19T05:43:15;0.50;1.00
20400;DHT22;10359;53.596;22.520;2023-11-19T05:45:46;0.40;1.00
20400;DHT22;10359;53.596;22.520;2023-11-19T05:48:16;0.20;1.00
20400;DHT22;10359;53.596;22.520;2023-11-19T05:50:47;0.60;1.00
20400;DHT22;10359;53.596;22.520;2023-11-19T05:53:17;0.80;1.00
20400;DHT22;10359;53.596;22.520;2023-11-19T05:55:47;0.80;1.00
20400;DHT22;10359;53.596;22.520;2023-11-19T05:58:24;0.60;1.00
20400;DHT22;10359;53.596;22.520;2023-11-19T06:00:56;0.50;1.00
20400;DHT22;10359;53.596;22.520;2023-11-19T06:03:28;0.40;1.00
20400;DHT22;10359;53.596;22.520;2023-11-19T06:05:59;0.60;1.00
20400;DHT22;10359;53.596;22.520;2023-11-19T06:08:28;0.60;1.00
20400;DHT22;10359;53.596;22.520;2023-11-19T06:10:58;0.60;1.00
20400;DHT22;10359;53.596;22.520;2023-11-19T06:13:29;0.80;1.00
20400;DHT22;10359;53.596;22.520;2023-11-19T06:15:59;0.90;1.00
20400;DHT22;10359;53.596;22.520;2023-11-19T06:18:28;0.70;1.00
20400;DHT22;10359;53.596;22.520;2023-11-19T06:21:00;0.70;1.00
20400;DHT22;10359;53.596;22.520;2023-11-19T06:23:29;0.80;1.00
20400;DHT22;10359;53.596;22.520;2023-11-19T06:25:59;0.50;1.00
20400;DHT22;10359;53.596;22.520;2023-11-19T06:28:28;0.70;1.00
20400;DHT22;10359;53.596;22.520;2023-11-19T06:30:58;0.80;1.00
20400;DHT22;10359;53.596;22.520;2023-11-19T06:33:27;0.70;1.00
20400;DHT22;10359;53.596;22.520;2023-11-19T06:35:56;0.70;1.00
20400;DHT22;10359;53.596;22.520;2023-11-19T06:38:28;0.90;1.00
20400;DHT22;10359;53.596;22.520;2023-11-19T06:40:57;1.10;1.00
20400;DHT22;10359;53.596;22.520;2023-11-19T06:43:27;0.50;1.00
20400;DHT22;10359;53.596;22.520;2023-11-19T06:46:15;0.60;1.00
20400;DHT22;10359;53.596;22.520;2023-11-19T06:48:44;0.90;1.00
20400;DHT22;10359;53.596;22.520;2023-11-19T06:51:15;1.00;1.00
20400;DHT22;10359;53.596;22.520;2023-11-19T06:53:46;0.90;1.00
20400;DHT22;10359;53.596;22.520;2023-11-19T06:56:19;1.20;1.00
20400;DHT22;10359;53.596;22.520;2023-11-19T06:58:49;1.00;1.00
20400;DHT22;10359;53.596;22.520;2023-11-19T07:01:18;1.10;1.00
20400;DHT22;10359;53.596;22.520;2023-11-19T07:03:48;1.30;1.00
20400;DHT22;10359;53.596;22.520;2023-11-19T07:06:19;1.30;1.00
20400;DHT22;10359;53.596;22.520;2023-11-19T07:09:03;1.40;1.00
20400;DHT22;10359;53.596;22.520;2023-11-19T07:11:38;1.40;1.00
20400;DHT22;10359;53.596;22.520;2023-11-19T07:14:08;1.60;1.00
20400;DHT22;10359;53.596;22.520;2023-11-19T07:16:37;1.60;1.00
20400;DHT22;10359;53.596;22.520;2023-11-19T07:19:07;1.70;1.00
20400;DHT22;10359;53.596;22.520;2023-11-19T07:21:36;1.80;1.00
20400;DHT22;10359;53.596;22.520;2023-11-19T07:24:09;1.80;1.00
20400;DHT22;10359;53.596;22.520;2023-11-19T07:26:42;1.80;1.00
20400;DHT22;10359;53.596;22.520;2023-11-19T07:29:13;1.90;1.00
20400;DHT22;10359;53.596;22.520;2023-11-19T07:31:56;1.90;1.00
20400;DHT22;10359;53.596;22.520;2023-11-19T07:34:25;1.50;1.00
20400;DHT22;10359;53.596;22.520;2023-11-19T07:36:55;1.90;1.00
20400;DHT22;10359;53.596;22.520;2023-11-19T07:39:28;1.90;1.00
20400;DHT22;10359;53.596;22.520;2023-11-19T07:41:58;2.00;1.00
20400;DHT22;10359;53.596;22.520;2023-11-19T07:44:27;2.20;1.00
20400;DHT22;10359;53.596;22.520;2023-11-19T07:46:57;2.30;1.00
20400;DHT22;10359;53.596;22.520;2023-11-19T07:49:26;2.30;1.00
20400;DHT22;10359;53.596;22.520;2023-11-19T07:51:55;2.40;1.00
20400;DHT22;10359;53.596;22.520;2023-11-19T07:54:25;2.40;1.00
20400;DHT22;10359;53.596;22.520;2023-11-19T07:56:56;2.40;1.00
20400;DHT22;10359;53.596;22.520;2023-11-19T07:59:25;2.40;1.00
20400;DHT22;10359;53.596;22.520;2023-11-19T08:01:54;2.50;1.00
20400;DHT22;10359;53.596;22.520;2023-11-19T08:04:24;2.50;1.00
20400;DHT22;10359;53.596;22.520;2023-11-19T08:06:54;2.50;1.00
20400;DHT22;10359;53.596;22.520;2023-11-19T08:09:24;2.60;1.00
20400;DHT22;10359;53.596;22.520;2023-11-19T08:11:56;2.60;1.00
20400;DHT22;10359;53.596;22.520;2023-11-19T08:14:26;2.70;1.00
20400;DHT22;10359;53.596;22.520;2023-11-19T08:16:55;2.70;1.00
20400;DHT22;10359;53.596;22.520;2023-11-19T08:19:25;2.80;1.00
20400;DHT22;10359;53.596;22.520;2023-11-19T08:21:58;2.80;1.00
20400;DHT22;10359;53.596;22.520;2023-11-19T08:24:27;2.90;1.00
20400;DHT22;10359;53.596;22.520;2023-11-19T08:26:58;2.80;1.00
20400;DHT22;10359;53.596;22.520;2023-11-19T08:29:30;2.80;1.00
20400;DHT22;10359;53.596;22.520;2023-11-19T08:32:00;2.70;1.00
20400;DHT22;10359;53.596;22.520;2023-11-19T08:34:31;2.70;1.00
20400;DHT22;10359;53.596;22.520;2023-11-19T08:37:01;2.80;1.00
20400;DHT22;10359;53.596;22.520;2023-11-19T08:39:30;2.70;1.00
20400;DHT22;10359;53.596;22.520;2023-11-19T08:42:01;2.80;1.00
20400;DHT22;10359;53.596;22.520;2023-11-19T08:44:31;2.80;1.00
20400;DHT22;10359;53.596;22.520;2023-11-19T08:47:00;2.80;1.00
20400;DHT22;10359;53.596;22.520;2023-11-19T08:49:30;2.70;1.00
20400;DHT22;10359;53.596;22.520;2023-11-19T08:52:00;2.80;1.00
20400;DHT22;10359;53.596;22.520;2023-11-19T08:54:30;2.80;1.00
20400;DHT22;10359;53.596;22.520;2023-11-19T08:57:02;2.90;1.00
20400;DHT22;10359;53.596;22.520;2023-11-19T08:59:31;2.80;1.00
20400;DHT22;10359;53.596;22.520;2023-11-19T09:02:01;2.70;1.00
20400;DHT22;10359;53.596;22.520;2023-11-19T09:04:31;2.70;1.00
20400;DHT22;10359;53.596;22.520;2023-11-19T09:07:01;2.80;1.00
20400;DHT22;10359;53.596;22.520;2023-11-19T09:09:31;2.90;1.00
20400;DHT22;10359;53.596;22.520;2023-11-19T09:12:05;2.90;1.00
20400;DHT22;10359;53.596;22.520;2023-11-19T09:14:35;2.80;1.00
20400;DHT22;10359;53.596;22.520;2023-11-19T09:17:04;2.80;1.00
20400;DHT22;10359;53.596;22.520;2023-11-19T09:19:34;2.80;1.00
20400;DHT22;10359;53.596;22.520;2023-11-19T09:22:03;2.80;1.00
20400;DHT22;10359;53.596;22.520;2023-11-19T09:24:33;2.90;1.00
20400;DHT22;10359;53.596;22.520;2023-11-19T09:27:04;2.90;1.00
20400;DHT22;10359;53.596;22.520;2023-11-19T09:29:33;2.80;1.00
20400;DHT22;10359;53.596;22.520;2023-11-19T09:32:04;2.80;1.00
20400;DHT22;10359;53.596;22.520;2023-11-19T09:34:33;2.90;1.00
20400;DHT22;10359;53.596;22.520;2023-11-19T09:37:02;2.90;1.00
20400;DHT22;10359;53.596;22.520;2023-11-19T09:39:48;2.80;1.00
20400;DHT22;10359;53.596;22.520;2023-11-19T09:42:19;2.90;1.00
20400;DHT22;10359;53.596;22.520;2023-11-19T09:44:49;2.90;1.00
20400;DHT22;10359;53.596;22.520;2023-11-19T09:47:19;2.80;1.00
20400;DHT22;10359;53.596;22.520;2023-11-19T09:49:50;2.90;1.00
20400;DHT22;10359;53.596;22.520;2023-11-19T09:52:28;2.80;1.00
20400;DHT22;10359;53.596;22.520;2023-11-19T09:54:57;2.80;1.00
20400;DHT22;10359;53.596;22.520;2023-11-19T09:57:31;2.90;1.00
20400;DHT22;10359;53.596;22.520;2023-11-19T10:00:01;2.90;1.00
20400;DHT22;10359;53.596;22.520;2023-11-19T10:02:33;2.90;1.00
20400;DHT22;10359;53.596;22.520;2023-11-19T10:05:06;2.90;1.00
20400;DHT22;10359;53.596;22.520;2023-11-19T10:07:36;2.80;1.00
20400;DHT22;10359;53.596;22.520;2023-11-19T10:10:06;2.70;1.00
20400;DHT22;10359;53.596;22.520;2023-11-19T10:12:38;2.90;1.00
20400;DHT22;10359;53.596;22.520;2023-11-19T10:15:25;2.90;1.00
20400;DHT22;10359;53.596;22.520;2023-11-19T10:17:56;2.90;1.00
20400;DHT22;10359;53.596;22.520;2023-11-19T10:20:25;3.00;1.00
20400;DHT22;10359;53.596;22.520;2023-11-19T10:22:55;3.00;1.00
20400;DHT22;10359;53.596;22.520;2023-11-19T10:25:26;3.00;1.00
20400;DHT22;10359;53.596;22.520;2023-11-19T10:27:57;2.90;1.00
20400;DHT22;10359;53.596;22.520;2023-11-19T10:30:27;3.00;1.00
20400;DHT22;10359;53.596;22.520;2023-11-19T10:33:07;3.00;1.00
20400;DHT22;10359;53.596;22.520;2023-11-19T10:35:51;2.90;1.00
20400;DHT22;10359;53.596;22.520;2023-11-19T10:38:24;2.90;1.00
20400;DHT22;10359;53.596;22.520;2023-11-19T10:40:54;2.90;1.00
20400;DHT22;10359;53.596;22.520;2023-11-19T10:43:25;3.00;1.00
20400;DHT22;10359;53.596;22.520;2023-11-19T10:46:09;3.10;1.00
20400;DHT22;10359;53.596;22.520;2023-11-19T10:48:39;3.10;1.00
20400;DHT22;10359;53.596;22.520;2023-11-19T10:51:09;3.10;1.00
20400;DHT22;10359;53.596;22.520;2023-11-19T10:53:43;3.10;1.00
20400;DHT22;10359;53.596;22.520;2023-11-19T10:56:13;3.10;1.00
20400;DHT22;10359;53.596;22.520;2023-11-19T10:58:49;3.00;1.00
20400;DHT22;10359;53.596;22.520;2023-11-19T11:01:20;3.00;1.00
20400;DHT22;10359;53.596;22.520;2023-11-19T11:03:53;2.90;1.00
20400;DHT22;10359;53.596;22.520;2023-11-19T11:06:25;3.00;1.00
20400;DHT22;10359;53.596;22.520;2023-11-19T11:08:55;3.00;1.00
20400;DHT22;10359;53.596;22.520;2023-11-19T11:11:25;3.00;1.00
20400;DHT22;10359;53.596;22.520;2023-11-19T11:13:57;3.00;1.00
20400;DHT22;10359;53.596;22.520;2023-11-19T11:16:29;2.90;1.00
20400;DHT22;10359;53.596;22.520;2023-11-19T11:18:59;2.90;1.00
20400;DHT22;10359;53.596;22.520;2023-11-19T11:21:29;3.00;1.00
20400;DHT22;10359;53.596;22.520;2023-11-19T11:24:35;2.90;1.00
20400;DHT22;10359;53.596;22.520;2023-11-19T11:27:23;2.80;1.00
20400;DHT22;10359;53.596;22.520;2023-11-19T11:30:06;2.90;1.00
20400;DHT22;10359;53.596;22.520;2023-11-19T11:32:45;2.90;1.00
20400;DHT22;10359;53.596;22.520;2023-11-19T11:35:27;2.90;1.00
20400;DHT22;10359;53.596;22.520;2023-11-19T11:38:03;3.00;1.00
20400;DHT22;10359;53.596;22.520;2023-11-19T11:40:33;3.00;1.00
20400;DHT22;10359;53.596;22.520;2023-11-19T11:43:02;3.00;1.00
20400;DHT22;10359;53.596;22.520;2023-11-19T11:45:39;2.90;1.00
20400;DHT22;10359;53.596;22.520;2023-11-19T11:48:15;3.00;1.00
20400;DHT22;10359;53.596;22.520;2023-11-19T11:50:57;3.00;1.00
20400;DHT22;10359;53.596;22.520;2023-11-19T11:53:27;3.00;1.00
20400;DHT22;10359;53.596;22.520;2023-11-19T11:55:59;2.90;1.00
20400;DHT22;10359;53.596;22.520;2023-11-19T11:58:34;2.90;1.00
20400;DHT22;10359;53.596;22.520;2023-11-19T12:01:06;2.90;1.00
20400;DHT22;10359;53.596;22.520;2023-11-19T12:03:37;2.90;1.00
20400;DHT22;10359;53.596;22.520;2023-11-19T12:06:08;3.00;1.00
20400;DHT22;10359;53.596;22.520;2023-11-19T12:08:39;2.80;1.00
20400;DHT22;10359;53.596;22.520;2023-11-19T12:11:12;2.90;1.00
20400;DHT22;10359;53.596;22.520;2023-11-19T12:13:52;3.00;1.00
20400;DHT22;10359;53.596;22.520;2023-11-19T12:16:25;2.90;1.00
20400;DHT22;10359;53.596;22.520;2023-11-19T12:18:56;3.00;1.00
20400;DHT22;10359;53.596;22.520;2023-11-19T12:21:32;3.00;1.00
20400;DHT22;10359;53.596;22.520;2023-11-19T12:24:07;2.90;1.00
20400;DHT22;10359;53.596;22.520;2023-11-19T12:26:38;2.90;1.00
20400;DHT22;10359;53.596;22.520;2023-11-19T12:29:08;2.90;1.00
20400;DHT22;10359;53.596;22.520;2023-11-19T12:31:44;2.90;1.00
20400;DHT22;10359;53.596;22.520;2023-11-19T12:34:14;2.90;1.00
20400;DHT22;10359;53.596;22.520;2023-11-19T12:36:43;3.00;1.00
20400;DHT22;10359;53.596;22.520;2023-11-19T12:39:12;3.10;1.00
20400;DHT22;10359;53.596;22.520;2023-11-19T12:41:54;3.00;1.00
20400;DHT22;10359;53.596;22.520;2023-11-19T12:44:25;2.90;1.00
20400;DHT22;10359;53.596;22.520;2023-11-19T12:47:04;2.90;1.00
20400;DHT22;10359;53.596;22.520;2023-11-19T12:49:34;3.00;1.00
20400;DHT22;10359;53.596;22.520;2023-11-19T12:52:12;2.80;1.00
20400;DHT22;10359;53.596;22.520;2023-11-19T12:54:42;2.90;1.00
20400;DHT22;10359;53.596;22.520;2023-11-19T12:57:11;2.90;1.00
20400;DHT22;10359;53.596;22.520;2023-11-19T12:59:41;3.00;1.00
20400;DHT22;10359;53.596;22.520;2023-11-19T13:02:12;3.00;1.00
20400;DHT22;10359;53.596;22.520;2023-11-19T13:04:41;2.90;1.00
20400;DHT22;10359;53.596;22.520;2023-11-19T13:07:10;2.90;1.00
20400;DHT22;10359;53.596;22.520;2023-11-19T13:09:40;2.90;1.00
20400;DHT22;10359;53.596;22.520;2023-11-19T13:12:15;2.90;1.00
20400;DHT22;10359;53.596;22.520;2023-11-19T13:14:45;2.90;1.00
20400;DHT22;10359;53.596;22.520;2023-11-19T13:17:17;2.90;1.00
20400;DHT22;10359;53.596;22.520;2023-11-19T13:19:47;2.80;1.00
20400;DHT22;10359;53.596;22.520;2023-11-19T13:22:18;2.80;1.00
20400;DHT22;10359;53.596;22.520;2023-11-19T13:24:47;2.70;1.00
20400;DHT22;10359;53.596;22.520;2023-11-19T13:27:17;2.30;1.00
20400;DHT22;10359;53.596;22.520;2023-11-19T13:29:46;2.70;1.00
20400;DHT22;10359;53.596;22.520;2023-11-19T13:32:17;2.80;1.00
20400;DHT22;10359;53.596;22.520;2023-11-19T13:34:48;2.70;1.00
20400;DHT22;10359;53.596;22.520;2023-11-19T13:37:18;2.80;1.00
20400;DHT22;10359;53.596;22.520;2023-11-19T13:39:47;2.70;1.00
20400;DHT22;10359;53.596;22.520;2023-11-19T13:42:17;2.70;1.00
20400;DHT22;10359;53.596;22.520;2023-11-19T13:44:47;2.80;1.00
20400;DHT22;10359;53.596;22.520;2023-11-19T13:47:19;2.90;1.00
20400;DHT22;10359;53.596;22.520;2023-11-19T13:49:48;3.00;1.00
20400;DHT22;10359;53.596;22.520;2023-11-19T13:52:18;3.00;1.00
20400;DHT22;10359;53.596;22.520;2023-11-19T13:54:47;3.00;1.00
20400;DHT22;10359;53.596;22.520;2023-11-19T13:57:20;2.90;1.00
20400;DHT22;10359;53.596;22.520;2023-11-19T13:59:50;2.90;1.00
20400;DHT22;10359;53.596;22.520;2023-11-19T14:02:21;2.80;1.00
20400;DHT22;10359;53.596;22.520;2023-11-19T14:04:51;2.70;1.00
20400;DHT22;10359;53.596;22.520;2023-11-19T14:07:21;2.70;1.00
20400;DHT22;10359;53.596;22.520;2023-11-19T14:09:50;2.80;1.00
20400;DHT22;10359;53.596;22.520;2023-11-19T14:12:20;2.80;1.00
20400;DHT22;10359;53.596;22.520;2023-11-19T14:14:50;2.80;1.00
20400;DHT22;10359;53.596;22.520;2023-11-19T14:17:21;2.80;1.00
20400;DHT22;10359;53.596;22.520;2023-11-19T14:19:50;2.60;1.00
20400;DHT22;10359;53.596;22.520;2023-11-19T14:22:20;2.60;1.00
20400;DHT22;10359;53.596;22.520;2023-11-19T14:24:49;2.60;1.00
20400;DHT22;10359;53.596;22.520;2023-11-19T14:27:19;2.60;1.00
20400;DHT22;10359;53.596;22.520;2023-11-19T14:29:49;2.60;1.00
20400;DHT22;10359;53.596;22.520;2023-11-19T14:32:21;2.60;1.00
20400;DHT22;10359;53.596;22.520;2023-11-19T14:34:50;2.50;1.00
20400;DHT22;10359;53.596;22.520;2023-11-19T14:37:20;2.60;1.00
20400;DHT22;10359;53.596;22.520;2023-11-19T14:39:51;2.60;1.00
20400;DHT22;10359;53.596;22.520;2023-11-19T14:42:20;2.60;1.00
20400;DHT22;10359;53.596;22.520;2023-11-19T14:44:50;2.70;1.00
20400;DHT22;10359;53.596;22.520;2023-11-19T14:47:22;2.50;1.00
20400;DHT22;10359;53.596;22.520;2023-11-19T14:49:53;2.50;1.00
20400;DHT22;10359;53.596;22.520;2023-11-19T14:52:25;2.60;1.00
20400;DHT22;10359;53.596;22.520;2023-11-19T14:54:56;2.60;1.00
20400;DHT22;10359;53.596;22.520;2023-11-19T14:57:26;2.50;1.00
20400;DHT22;10359;53.596;22.520;2023-11-19T14:59:56;2.30;1.00
20400;DHT22;10359;53.596;22.520;2023-11-19T15:02:26;2.40;1.00
20400;DHT22;10359;53.596;22.520;2023-11-19T15:04:56;2.50;1.00
20400;DHT22;10359;53.596;22.520;2023-11-19T15:07:25;2.50;1.00
20400;DHT22;10359;53.596;22.520;2023-11-19T15:09:55;2.40;1.00
20400;DHT22;10359;53.596;22.520;2023-11-19T15:12:25;2.40;1.00
20400;DHT22;10359;53.596;22.520;2023-11-19T15:14:55;2.40;1.00
20400;DHT22;10359;53.596;22.520;2023-11-19T15:17:25;2.40;1.00
20400;DHT22;10359;53.596;22.520;2023-11-19T15:19:55;2.60;1.00
20400;DHT22;10359;53.596;22.520;2023-11-19T15:22:25;2.40;1.00
20400;DHT22;10359;53.596;22.520;2023-11-19T15:24:54;2.40;1.00
20400;DHT22;10359;53.596;22.520;2023-11-19T15:27:24;2.50;1.00
20400;DHT22;10359;53.596;22.520;2023-11-19T15:29:55;2.40;1.00
20400;DHT22;10359;53.596;22.520;2023-11-19T15:32:28;2.40;1.00
20400;DHT22;10359;53.596;22.520;2023-11-19T15:35:00;2.30;1.00
20400;DHT22;10359;53.596;22.520;2023-11-19T15:37:30;2.50;1.00
20400;DHT22;10359;53.596;22.520;2023-11-19T15:39:59;2.40;1.00
20400;DHT22;10359;53.596;22.520;2023-11-19T15:42:31;2.50;1.00
20400;DHT22;10359;53.596;22.520;2023-11-19T15:45:01;2.20;1.00
20400;DHT22;10359;53.596;22.520;2023-11-19T15:47:34;2.40;1.00
20400;DHT22;10359;53.596;22.520;2023-11-19T15:50:04;2.40;1.00
20400;DHT22;10359;53.596;22.520;2023-11-19T15:52:40;2.40;1.00
20400;DHT22;10359;53.596;22.520;2023-11-19T15:55:12;2.40;1.00
20400;DHT22;10359;53.596;22.520;2023-11-19T15:57:42;2.30;1.00
20400;DHT22;10359;53.596;22.520;2023-11-19T16:00:11;2.30;1.00
20400;DHT22;10359;53.596;22.520;2023-11-19T16:02:42;2.40;1.00
20400;DHT22;10359;53.596;22.520;2023-11-19T16:05:13;2.40;1.00
20400;DHT22;10359;53.596;22.520;2023-11-19T16:07:42;2.40;1.00
20400;DHT22;10359;53.596;22.520;2023-11-19T16:10:12;2.20;1.00